createdAt,value
2018-03-27T00:02:39.693Z,35
2018-03-27T00:08:30.557Z,33.54
2018-03-27T00:14:21.443Z,29.07
2018-03-27T00:20:12.253Z,30.87
2018-03-27T00:26:03.155Z,31.7
2018-03-27T00:31:54.000Z,28.12
2018-03-27T00:37:44.980Z,33.3
2018-03-27T00:43:35.745Z,31.21
2018-03-27T00:49:26.628Z,26.95
2018-03-27T00:55:17.461Z,25.02
2018-03-27T01:01:08.310Z,19.94
2018-03-27T01:06:59.173Z,19.56
2018-03-27T01:12:50.044Z,28.54
2018-03-27T01:18:40.917Z,22.64
2018-03-27T01:24:31.743Z,18.88
2018-03-27T01:30:22.602Z,18.98
2018-03-27T01:36:13.486Z,20.97
2018-03-27T01:42:04.311Z,21.75
2018-03-27T01:47:55.235Z,22.39
2018-03-27T01:53:46.058Z,23.21
2018-03-27T01:59:36.932Z,22.1
2018-03-27T02:05:27.759Z,20.62
2018-03-27T02:11:18.653Z,20.15
2018-03-27T02:17:09.503Z,14.04
2018-03-27T02:23:00.376Z,18.26
2018-03-27T02:28:51.247Z,19.62
2018-03-27T02:34:42.122Z,18.04
2018-03-27T02:40:32.927Z,17.23
2018-03-27T02:46:23.821Z,20.98
2018-03-27T02:52:14.664Z,18.73
2018-03-27T02:58:05.552Z,15.06
2018-03-27T03:03:56.373Z,18.8
2018-03-27T03:09:47.234Z,16.61
2018-03-27T03:15:38.065Z,16.75
2018-03-27T03:21:28.934Z,20.17
2018-03-27T03:27:19.786Z,18
2018-03-27T03:33:10.697Z,23.01
2018-03-27T03:39:01.527Z,23.16
2018-03-27T03:44:52.360Z,21.11
2018-03-27T03:50:43.245Z,18.37
2018-03-27T03:56:34.326Z,15.52
2018-03-27T04:02:24.997Z,16.06
2018-03-27T04:08:15.827Z,18.56
2018-03-27T04:14:06.710Z,21.33
2018-03-27T04:19:57.525Z,16.64
2018-03-27T04:25:48.361Z,17.98
2018-03-27T04:31:39.264Z,18.84
2018-03-27T04:37:30.091Z,18.27
2018-03-27T04:43:20.924Z,19.59
2018-03-27T04:49:11.779Z,18.1
2018-03-27T04:55:02.697Z,21.01
2018-03-27T05:00:53.515Z,19.66
2018-03-27T05:06:44.390Z,21.34
2018-03-27T05:12:35.202Z,22.69
2018-03-27T05:18:26.087Z,24.04
2018-03-27T05:24:16.935Z,21.21
2018-03-27T05:30:07.766Z,19.11
2018-03-27T05:35:58.629Z,18.26
2018-03-27T05:41:49.749Z,73.79
2018-03-27T05:47:40.352Z,95.65
2018-03-27T05:53:31.217Z,122
2018-03-27T05:59:22.094Z,115.45
2018-03-27T06:05:12.910Z,113.33
2018-03-27T06:11:03.776Z,100.97
2018-03-27T06:16:54.727Z,98.29
2018-03-27T06:22:45.497Z,107.29
2018-03-27T06:28:36.328Z,106.84
2018-03-27T06:34:27.175Z,92.18
2018-03-27T06:40:18.055Z,83.4
2018-03-27T06:46:08.917Z,76.47
2018-03-27T06:51:59.796Z,58.77
2018-03-27T06:57:50.639Z,52.31
2018-03-27T07:03:41.492Z,44.35
2018-03-27T07:09:32.356Z,39.87
2018-03-27T07:15:23.201Z,50.86
2018-03-27T07:21:14.053Z,45.26
2018-03-27T07:27:04.878Z,39.68
2018-03-27T07:32:55.772Z,35.84
2018-03-27T07:38:46.607Z,34.58
2018-03-27T07:44:37.458Z,32.31
2018-03-27T07:50:28.302Z,35.81
2018-03-27T07:56:19.162Z,32.55
2018-03-27T08:02:10.078Z,35.31
2018-03-27T08:08:00.868Z,44.64
2018-03-27T08:13:51.728Z,59.11
2018-03-27T08:19:42.609Z,32.83
2018-03-27T08:25:33.494Z,25.92
2018-03-27T08:31:24.308Z,22.16
2018-03-27T08:37:15.154Z,18.09
2018-03-27T08:43:06.058Z,21.73
2018-03-27T08:48:56.922Z,23.14
2018-03-27T08:54:47.816Z,16.51
2018-03-27T09:00:38.597Z,22.74
2018-03-27T09:06:29.470Z,17.6
2018-03-27T09:12:20.355Z,16.14
2018-03-27T09:18:11.209Z,21.74
2018-03-27T09:24:02.060Z,22.75
2018-03-27T09:29:52.932Z,18.49
2018-03-27T09:35:43.768Z,18.71
2018-03-27T09:41:34.631Z,16.82
2018-03-27T09:47:25.511Z,26.66
2018-03-27T09:53:16.355Z,20.7
2018-03-27T09:59:07.264Z,19.1
2018-03-27T10:04:58.108Z,21.39
2018-03-27T10:10:48.995Z,21.81
2018-03-27T10:16:39.840Z,19.26
2018-03-27T10:22:30.719Z,18.63
2018-03-27T10:28:21.596Z,18.77
2018-03-27T10:34:12.477Z,19.26
2018-03-27T10:40:03.325Z,15.93
2018-03-27T10:45:54.206Z,16.46
2018-03-27T10:51:45.091Z,16.81
2018-03-27T10:57:35.940Z,11.23
2018-03-27T11:03:26.863Z,13.75
2018-03-27T11:09:17.795Z,14.64
2018-03-27T11:15:08.620Z,12.76
2018-03-27T11:20:59.507Z,18.99
2018-03-27T11:26:50.410Z,18.74
2018-03-27T11:32:41.325Z,16.6
2018-03-27T11:38:32.184Z,14.02
2018-03-27T11:44:23.074Z,17.14
2018-03-27T11:50:13.988Z,14.16
2018-03-27T11:56:04.873Z,16.29
2018-03-27T12:01:55.748Z,13.88
2018-03-27T12:07:46.657Z,12.05
2018-03-27T12:13:37.582Z,15.77
2018-03-27T12:19:28.460Z,14.19
2018-03-27T12:25:19.378Z,15.55
2018-03-27T12:31:10.273Z,13.49
2018-03-27T12:37:01.150Z,11.21
2018-03-27T12:42:52.060Z,12.42
2018-03-27T12:48:42.998Z,25.32
2018-03-27T12:54:33.883Z,27.33
2018-03-27T13:00:24.817Z,41.85
2018-03-27T13:06:15.709Z,64.49
2018-03-27T13:12:06.636Z,67.57
2018-03-27T13:17:57.493Z,62.9
2018-03-27T13:23:48.421Z,68.87
2018-03-27T13:29:39.324Z,51.66
2018-03-27T13:35:30.214Z,58.22
2018-03-27T13:41:21.150Z,54.21
2018-03-27T13:47:12.028Z,49.64
2018-03-27T13:53:02.920Z,45.98
2018-03-27T13:58:53.830Z,49.29
2018-03-27T14:04:44.682Z,33.66
2018-03-27T14:10:35.608Z,37.7
2018-03-27T14:16:26.468Z,33.19
2018-03-27T14:22:17.382Z,27.11
2018-03-27T14:28:08.250Z,25.5
2018-03-27T14:33:59.175Z,29
2018-03-27T14:39:50.058Z,42.84
2018-03-27T14:45:41.026Z,31.15
2018-03-27T14:51:31.891Z,35.97
2018-03-27T14:57:22.824Z,54.96
2018-03-27T15:03:13.734Z,74.35
2018-03-27T15:09:04.716Z,66.56
2018-03-27T15:14:55.613Z,64.19
2018-03-27T15:20:46.504Z,56.31
2018-03-27T15:26:37.386Z,93.19
2018-03-27T15:32:28.282Z,67.77
2018-03-27T15:38:19.186Z,47.6
2018-03-27T15:44:10.095Z,54.49
2018-03-27T15:50:01.018Z,37.64
2018-03-27T15:55:51.904Z,35.83
2018-03-27T16:01:42.784Z,37.94
2018-03-27T16:07:33.647Z,30.41
2018-03-27T16:13:24.531Z,42.7
2018-03-27T16:19:15.447Z,19.99
2018-03-27T16:25:06.429Z,14.55
2018-03-27T16:30:57.250Z,14.06
2018-03-27T16:36:48.096Z,11.36
2018-03-27T16:42:39.034Z,12.06
2018-03-27T16:48:29.905Z,13.79
2018-03-27T16:54:20.793Z,12.76
2018-03-27T17:00:11.776Z,15.36
2018-03-27T17:06:02.611Z,17.47
2018-03-27T17:11:53.447Z,13.18
2018-03-27T17:17:44.320Z,18.57
2018-03-27T17:23:35.211Z,17.45
2018-03-27T17:29:26.081Z,16.68
2018-03-27T17:35:17.003Z,15.98
2018-03-27T17:41:07.894Z,16.41
2018-03-27T17:46:58.716Z,16.24
2018-03-27T17:52:49.684Z,19.85
2018-03-27T17:58:40.527Z,16.17
2018-03-27T18:04:31.363Z,15.7
2018-03-27T18:10:22.259Z,13.77
2018-03-27T18:16:13.129Z,13.66
2018-03-27T18:22:04.010Z,18.36
2018-03-27T18:27:54.859Z,15.11
2018-03-27T18:33:45.755Z,16.74
2018-03-27T18:39:36.639Z,14.64
2018-03-27T18:45:27.489Z,12.66
2018-03-27T18:51:18.363Z,14.1
2018-03-27T18:57:09.264Z,16.01
2018-03-27T19:03:00.151Z,14.98
2018-03-27T19:08:50.985Z,12.07
2018-03-27T19:14:41.861Z,14.55
2018-03-27T19:20:32.763Z,14.61
2018-03-27T19:26:23.613Z,16.93
2018-03-27T19:32:14.491Z,14.28
2018-03-27T19:38:05.349Z,12.42
2018-03-27T19:43:56.221Z,17.7
2018-03-27T19:49:47.080Z,24.53
2018-03-27T19:55:37.966Z,18.87
2018-03-27T20:01:28.799Z,17.48
2018-03-27T20:07:19.706Z,19.09
2018-03-27T20:13:10.547Z,19.24
2018-03-27T20:19:01.416Z,19.28
2018-03-27T20:24:52.329Z,20.26
2018-03-27T20:30:43.184Z,21.88
2018-03-27T20:36:34.062Z,22.01
2018-03-27T20:42:24.946Z,21.32
2018-03-27T20:48:15.772Z,17.85
2018-03-27T20:54:06.655Z,22.91
2018-03-27T20:59:57.540Z,25.26
2018-03-27T21:05:48.480Z,19.8
2018-03-27T21:11:39.249Z,21.21
2018-03-27T21:17:30.091Z,18.79
2018-03-27T21:23:20.994Z,18.53
2018-03-27T21:29:11.833Z,22.31
2018-03-27T21:35:02.715Z,20.17
2018-03-27T21:40:53.564Z,23.81
2018-03-27T21:46:44.427Z,16.33
2018-03-27T21:52:35.307Z,17.99
2018-03-27T21:58:26.229Z,20.82
2018-03-27T22:04:17.034Z,15.79
2018-03-27T22:10:07.928Z,20.31
2018-03-27T22:15:58.828Z,19.71
2018-03-27T22:21:49.602Z,21.49
2018-03-27T22:27:40.498Z,16.08
2018-03-27T22:33:31.365Z,13.27
2018-03-27T22:39:22.249Z,16
2018-03-27T22:45:13.101Z,17.43
2018-03-27T22:51:03.990Z,15.35
2018-03-27T22:56:54.995Z,14.4
2018-03-27T23:02:45.692Z,17.92
2018-03-27T23:08:36.542Z,14.79
2018-03-27T23:14:27.456Z,18.17
2018-03-27T23:20:18.281Z,15.52
2018-03-27T23:26:09.210Z,15.47
2018-03-27T23:32:00.050Z,17.92
2018-03-27T23:37:50.889Z,17.75
2018-03-27T23:43:41.770Z,19.27
2018-03-27T23:49:32.630Z,17.16
2018-03-27T23:55:23.492Z,15.47
